Time;durP1;ratioP1;P1;durP2;ratioP2;P2;SDS_P1;SDS_P2;PMS_P1;PMS_P2;Temp;Humidity;BMP_temperature;BMP_pressure;BME280_temperature;BME280_humidity;BME280_pressure;Samples;Min_cycle;Max_cycle;Signal;HPM_P1;HPM_P2
2023/06/03 00:01:54;;;;;;;;;12.67;10.67;;;;;15.72;70.08;101655.56;5011588;28;47124;-74
2023/06/03 00:04:21;;;;;;;;;14.33;13.33;;;;;15.70;70.31;101660.16;5021653;28;45285;-74
2023/06/03 00:06:47;;;;;;;;;14.33;13.00;;;;;15.71;70.62;101655.66;5029073;28;45245;-74
2023/06/03 00:09:12;;;;;;;;;14.33;13.33;;;;;15.67;71.02;101648.78;5022295;28;45243;-74
2023/06/03 00:11:38;;;;;;;;;17.33;12.67;;;;;15.54;72.08;101638.75;5019783;28;46587;-74
2023/06/03 00:14:04;;;;;;;;;13.33;13.33;;;;;15.62;71.13;101654.34;5026689;28;45210;-74
2023/06/03 00:16:32;;;;;;;;;15.33;12.67;;;;;15.59;71.94;101647.38;5031432;28;45331;-74
2023/06/03 00:18:58;;;;;;;;;13.67;13.00;;;;;15.57;72.28;101659.09;5031589;28;45470;-74
2023/06/03 00:21:23;;;;;;;;;19.33;13.33;;;;;15.47;71.98;101644.50;5031975;28;45438;-74
2023/06/03 00:23:49;;;;;;;;;20.67;14.00;;;;;15.35;72.81;101616.69;5035486;28;45299;-74
2023/06/03 00:26:15;;;;;;;;;15.67;11.00;;;;;15.40;73.11;101635.97;5021689;28;45387;-74
2023/06/03 00:28:40;;;;;;;;;11.67;11.67;;;;;15.40;72.90;101640.44;5026595;28;45304;-74
2023/06/03 00:31:06;;;;;;;;;14.67;14.67;;;;;15.35;74.05;101635.34;5033563;28;45251;-74
2023/06/03 00:33:31;;;;;;;;;18.33;17.33;;;;;15.39;73.25;101639.56;5036832;28;45276;-74
2023/06/03 00:35:56;;;;;;;;;19.33;15.33;;;;;15.43;73.94;101653.59;5034217;28;45297;-74
2023/06/03 00:38:22;;;;;;;;;22.00;17.67;;;;;15.40;73.17;101653.75;5036582;28;45235;-75
2023/06/03 00:40:47;;;;;;;;;15.00;13.67;;;;;15.39;73.81;101647.56;5019285;28;45483;-75
2023/06/03 00:43:12;;;;;;;;;17.67;15.33;;;;;15.34;74.06;101632.78;5026001;28;45357;-75
2023/06/03 00:45:38;;;;;;;;;20.00;17.00;;;;;15.39;73.44;101639.56;5025329;28;45271;-75
2023/06/03 00:48:03;;;;;;;;;15.00;15.00;;;;;15.38;73.62;101643.16;5026897;28;45316;-75
2023/06/03 00:50:29;;;;;;;;;18.33;15.33;;;;;15.27;74.26;101618.91;5019536;28;45528;-75
2023/06/03 00:52:55;;;;;;;;;18.00;15.33;;;;;15.39;75.01;101647.56;5021555;28;45588;-75
2023/06/03 00:55:20;;;;;;;;;15.67;14.33;;;;;15.35;74.36;101631.81;5001814;28;45324;-75
2023/06/03 00:57:46;;;;;;;;;18.67;15.00;;;;;15.34;74.90;101635.44;5018038;28;45542;-76
2023/06/03 01:00:12;;;;;;;;;15.67;15.00;;;;;15.19;74.95;101606.91;5002996;28;48601;-75
2023/06/03 01:02:43;;;;;;;;;14.33;13.00;;;;;15.19;74.83;101617.59;5031868;28;45370;-76
2023/06/03 01:05:10;;;;;;;;;16.67;14.67;;;;;15.15;74.94;101616.03;5034009;28;45521;-75
2023/06/03 01:07:56;;;;;;;;;15.67;14.67;;;;;15.25;75.35;101635.94;5015279;28;45256;-75
2023/06/03 01:10:38;;;;;;;;;22.33;18.00;;;;;15.23;75.99;101625.34;5033051;28;46195;-74
2023/06/03 01:13:16;;;;;;;;;20.00;18.00;;;;;15.13;75.20;101619.63;5020184;28;45483;-75
2023/06/03 01:15:44;;;;;;;;;22.00;16.00;;;;;15.20;74.93;101627.31;5010461;28;45313;-74
2023/06/03 01:18:12;;;;;;;;;18.00;16.00;;;;;15.20;76.30;101614.84;5008933;28;45927;-74
2023/06/03 01:20:38;;;;;;;;;18.33;11.67;;;;;15.19;75.49;101620.25;5027045;28;47211;-74
2023/06/03 01:23:23;;;;;;;;;18.33;16.00;;;;;15.20;75.83;101619.31;5023959;28;45371;-74
2023/06/03 01:25:52;;;;;;;;;18.00;14.67;;;;;15.20;75.78;101614.84;5030943;28;45323;-74
2023/06/03 01:28:20;;;;;;;;;19.00;18.00;;;;;15.17;76.15;101615.00;5032693;28;46049;-74
2023/06/03 01:30:46;;;;;;;;;18.00;15.00;;;;;15.11;75.51;101610.88;5029318;28;46045;-74
2023/06/03 01:33:12;;;;;;;;;17.67;16.00;;;;;15.14;75.48;101617.84;5025878;28;46166;-74
2023/06/03 01:35:39;;;;;;;;;17.67;16.33;;;;;15.15;74.95;101616.03;5022967;28;45325;-75
2023/06/03 01:38:05;;;;;;;;;20.00;18.00;;;;;15.11;75.54;101620.66;5038194;28;45382;-74
2023/06/03 01:40:31;;;;;;;;;18.67;16.67;;;;;14.93;75.63;101584.31;5022525;28;46743;-74
2023/06/03 01:42:56;;;;;;;;;19.67;18.33;;;;;15.10;75.56;101611.81;5010025;28;45301;-74
2023/06/03 01:45:22;;;;;;;;;18.67;15.00;;;;;15.12;75.04;101620.56;5033114;28;45378;-75
2023/06/03 01:47:47;;;;;;;;;23.67;22.67;;;;;15.11;75.82;101612.69;5011039;28;45398;-74
2023/06/03 01:50:16;;;;;;;;;16.00;15.00;;;;;15.12;75.81;101619.72;5028600;28;46859;-74
2023/06/03 01:52:42;;;;;;;;;15.67;15.67;;;;;15.11;76.24;101626.00;5023807;28;46690;-74
2023/06/03 01:55:07;;;;;;;;;19.33;15.67;;;;;15.00;75.79;101610.56;5026420;28;45455;-74
2023/06/03 01:57:33;;;;;;;;;20.00;16.67;;;;;15.02;75.47;101615.81;5032798;28;45283;-74
2023/06/03 01:59:58;;;;;;;;;17.67;17.67;;;;;14.95;76.53;101604.59;5032054;28;45335;-74
2023/06/03 02:02:24;;;;;;;;;21.67;18.00;;;;;14.99;76.61;101624.81;5035163;28;45315;-75
2023/06/03 02:04:51;;;;;;;;;20.67;17.33;;;;;14.93;76.88;101614.50;5014228;28;45340;-74
2023/06/03 02:07:17;;;;;;;;;17.33;17.00;;;;;14.94;76.40;101610.03;5033492;28;45534;-75
2023/06/03 02:09:44;;;;;;;;;17.50;17.50;;;;;14.94;76.32;101604.72;5032845;28;46176;-74
2023/06/03 02:12:09;;;;;;;;;18.00;16.33;;;;;14.70;77.10;101580.22;5026764;28;45342;-75
2023/06/03 02:14:37;;;;;;;;;24.67;20.33;;;;;14.87;78.02;101603.31;5033272;28;45272;-75
2023/06/03 02:17:03;;;;;;;;;20.33;19.00;;;;;14.90;77.62;101614.66;5040919;28;45217;-74
2023/06/03 02:19:28;;;;;;;;;17.00;15.33;;;;;14.82;78.08;101606.19;5024237;28;47570;-74
2023/06/03 02:21:57;;;;;;;;;20.33;16.67;;;;;14.84;77.74;101607.00;5036535;28;45362;-74
2023/06/03 02:24:23;;;;;;;;;18.67;18.67;;;;;14.84;78.66;101607.00;5023876;28;45312;-74
2023/06/03 02:26:52;;;;;;;;;26.67;18.00;;;;;14.83;78.48;101609.72;5039230;28;45364;-74
2023/06/03 02:29:25;;;;;;;;;23.00;17.67;;;;;14.79;79.03;101614.34;5030012;28;45359;-75
2023/06/03 02:31:52;;;;;;;;;18.00;15.67;;;;;14.78;79.35;101604.66;5038486;28;45439;-74
2023/06/03 02:34:18;;;;;;;;;19.33;17.33;;;;;14.64;79.05;101579.66;5028638;28;45382;-74
2023/06/03 02:36:46;;;;;;;;;18.00;17.00;;;;;14.76;79.45;101609.19;5014006;28;45244;-74
2023/06/03 02:39:12;;;;;;;;;22.00;20.00;;;;;14.73;80.23;101611.13;5027754;28;45504;-74
2023/06/03 02:41:38;;;;;;;;;19.67;15.00;;;;;14.66;79.66;101605.25;5004912;28;45366;-75
2023/06/03 02:44:04;;;;;;;;;19.67;17.00;;;;;14.54;79.98;101582.81;5025976;28;45347;-74
2023/06/03 02:46:30;;;;;;;;;20.50;16.50;;;;;14.57;80.67;101593.28;4999943;28;45569;-75
2023/06/03 02:48:56;;;;;;;;;18.33;16.00;;;;;14.66;80.43;101609.75;5027476;28;46362;-74
2023/06/03 02:51:21;;;;;;;;;20.00;17.00;;;;;14.62;80.74;101609.03;5016407;28;45753;-74
2023/06/03 02:53:47;;;;;;;;;20.33;18.00;;;;;14.55;81.21;101599.63;5030342;28;45391;-74
2023/06/03 02:56:12;;;;;;;;;20.00;17.00;;;;;14.46;81.27;101597.47;5024828;28;45466;-75
2023/06/03 02:58:39;;;;;;;;;23.50;20.75;;;;;14.51;82.23;101606.06;5003267;28;46698;-75
2023/06/03 03:01:05;;;;;;;;;21.33;18.00;;;;;14.44;81.75;101586.88;5023777;28;45637;-74
2023/06/03 03:03:35;;;;;;;;;13.33;12.00;;;;;14.43;80.77;101586.97;5014720;28;45586;-74
2023/06/03 03:06:02;;;;;;;;;26.00;21.50;;;;;14.48;81.05;101606.22;5033700;28;45400;-75
2023/06/03 03:08:27;;;;;;;;;24.33;18.67;;;;;14.45;81.13;101601.03;5026012;28;45199;-75
2023/06/03 03:10:53;;;;;;;;;21.33;18.67;;;;;14.47;81.80;101596.50;5034634;28;45301;-74
2023/06/03 03:13:18;;;;;;;;;17.33;17.33;;;;;14.40;81.71;101587.97;5026908;28;45434;-74
2023/06/03 03:15:43;;;;;;;;;20.33;17.00;;;;;14.44;81.55;101596.66;5020945;28;45422;-75
2023/06/03 03:18:09;;;;;;;;;19.00;18.00;;;;;14.46;80.88;101602.78;5027324;28;45397;-75
2023/06/03 03:20:34;;;;;;;;;15.00;14.25;;;;;14.43;81.73;101600.28;5032102;28;45596;-74
2023/06/03 03:23:00;;;;;;;;;19.00;17.00;;;;;14.43;81.78;101589.63;5033430;28;45317;-74
2023/06/03 03:25:26;;;;;;;;;24.00;19.33;;;;;14.41;82.67;101605.66;5037322;28;45299;-74
2023/06/03 03:27:52;;;;;;;;;18.50;16.00;;;;;14.37;82.93;101589.91;5033330;28;46004;-75
2023/06/03 03:30:17;;;;;;;;;16.33;16.33;;;;;14.35;82.53;101598.00;5033050;28;45346;-75
2023/06/03 03:32:42;;;;;;;;;20.50;17.75;;;;;14.36;82.41;101604.19;5028523;28;45313;-74
2023/06/03 03:35:16;;;;;;;;;18.00;18.00;;;;;14.35;82.69;101610.44;5040777;28;45241;-75
2023/06/03 03:37:43;;;;;;;;;22.67;20.67;;;;;14.33;83.21;101601.63;5037415;28;46021;-74
2023/06/03 03:40:21;;;;;;;;;20.33;15.00;;;;;14.23;83.18;101590.59;5024852;28;45367;-74
2023/06/03 03:42:54;;;;;;;;;16.67;16.00;;;;;14.30;83.29;101597.31;5025060;28;45228;-74
2023/06/03 03:45:33;;;;;;;;;20.33;18.33;;;;;14.24;82.71;101604.72;5022795;28;45561;-74
2023/06/03 03:48:06;;;;;;;;;18.67;18.00;;;;;14.23;83.16;101606.56;5029474;28;45426;-74
2023/06/03 03:50:39;;;;;;;;;24.25;17.50;;;;;14.16;83.44;101605.13;5025672;28;45446;-74
2023/06/03 03:53:07;;;;;;;;;18.00;18.00;;;;;14.15;84.75;101610.50;5038475;28;45236;-74
2023/06/03 03:55:38;;;;;;;;;23.25;21.75;;;;;14.16;83.96;101621.09;5031374;28;45274;-75
2023/06/03 03:58:06;;;;;;;;;21.00;18.00;;;;;14.09;83.64;101604.56;5024788;28;46118;-74
2023/06/03 04:00:33;;;;;;;;;21.25;17.50;;;;;14.14;84.37;101622.94;5025581;28;45256;-74
2023/06/03 04:02:58;;;;;;;;;17.33;15.33;;;;;14.03;83.77;101601.34;5023883;28;45197;-74
2023/06/03 04:05:25;;;;;;;;;23.75;18.75;;;;;14.09;84.21;101611.69;5036751;28;45482;-74
2023/06/03 04:07:50;;;;;;;;;24.50;17.50;;;;;14.02;84.31;101607.59;5032122;28;47288;-74
2023/06/03 04:10:20;;;;;;;;;26.25;20.00;;;;;14.08;84.12;101612.59;5009676;28;45427;-74
2023/06/03 04:12:47;;;;;;;;;23.75;18.25;;;;;14.08;84.81;101613.47;5010062;28;45471;-74
2023/06/03 04:15:13;;;;;;;;;25.00;21.00;;;;;14.07;85.19;101617.06;5025375;28;45325;-75
2023/06/03 04:17:40;;;;;;;;;22.50;20.25;;;;;14.12;84.60;101610.66;5028700;28;45395;-75
2023/06/03 04:20:09;;;;;;;;;29.75;26.25;;;;;13.90;85.52;101578.94;5030785;28;45336;-74
2023/06/03 04:22:35;;;;;;;;;25.00;20.25;;;;;14.12;85.61;101608.00;5035097;28;45571;-74
2023/06/03 04:25:07;;;;;;;;;28.75;21.00;;;;;14.03;86.11;101590.72;5038713;28;45814;-74
2023/06/03 04:27:32;;;;;;;;;41.00;33.25;;;;;14.10;85.48;101614.25;5015812;28;46892;-74
2023/06/03 04:29:57;;;;;;;;;43.50;35.50;;;;;14.02;86.71;101596.94;5011230;28;45284;-75
2023/06/03 04:32:23;;;;;;;;;40.50;34.50;;;;;14.14;85.05;101614.09;5033079;28;45414;-74
2023/06/03 04:34:53;;;;;;;;;48.25;33.00;;;;;14.13;85.52;101613.25;5026108;28;45199;-74
2023/06/03 04:37:20;;;;;;;;;31.50;27.00;;;;;14.16;84.96;101617.56;5037119;28;45609;-74
2023/06/03 04:39:46;;;;;;;;;26.25;23.25;;;;;14.05;84.71;101602.13;5015575;28;45436;-74
2023/06/03 04:42:12;;;;;;;;;32.25;27.00;;;;;14.23;85.67;101629.63;5031283;28;45502;-74
2023/06/03 04:44:39;;;;;;;;;27.50;22.00;;;;;14.23;86.32;101622.53;5025187;28;45296;-74
2023/06/03 04:47:10;;;;;;;;;27.25;25.75;;;;;14.22;85.42;101625.25;4998817;28;47231;-74
2023/06/03 04:49:38;;;;;;;;;18.00;17.75;;;;;14.29;85.62;101634.66;5032278;28;45378;-75
2023/06/03 04:52:05;;;;;;;;;21.00;18.00;;;;;14.29;86.19;101632.00;5022320;28;45288;-74
2023/06/03 04:54:30;;;;;;;;;19.25;16.75;;;;;14.29;85.33;101627.53;5034792;28;46111;-74
2023/06/03 04:56:56;;;;;;;;;20.67;18.33;;;;;14.38;84.99;101635.09;5014765;28;45880;-74
2023/06/03 04:59:21;;;;;;;;;22.67;17.00;;;;;14.45;83.69;101643.63;5020982;28;45308;-74
2023/06/03 05:01:48;;;;;;;;;16.67;16.00;;;;;14.49;83.81;101647.88;5028343;28;45296;-74
2023/06/03 05:04:14;;;;;;;;;19.67;16.00;;;;;14.47;83.23;101633.75;5024978;28;46408;-74
2023/06/03 05:06:39;;;;;;;;;12.00;12.00;;;;;14.59;84.06;101652.63;5005760;28;46839;-74
2023/06/03 05:09:05;;;;;;;;;19.67;15.33;;;;;14.57;84.71;101632.34;5032207;28;45351;-74
2023/06/03 05:11:31;;;;;;;;;17.00;16.67;;;;;14.69;82.68;101650.38;5042622;28;45446;-75
2023/06/03 05:13:57;;;;;;;;;16.00;15.00;;;;;14.68;82.08;101651.31;5014119;28;45767;-74
2023/06/03 05:16:22;;;;;;;;;21.00;19.33;;;;;14.75;83.42;101651.88;5036645;28;46100;-74
2023/06/03 05:18:48;;;;;;;;;18.00;16.67;;;;;14.84;81.83;101654.94;5026463;28;45992;-74
2023/06/03 05:21:17;;;;;;;;;27.33;20.67;;;;;14.89;83.47;101644.88;5027116;28;45292;-75
2023/06/03 05:23:43;;;;;;;;;19.67;18.00;;;;;14.96;82.96;101643.63;5037062;28;45362;-74
2023/06/03 05:26:08;;;;;;;;;18.25;17.75;;;;;15.06;81.70;101644.88;5042368;28;46132;-74
2023/06/03 05:28:34;;;;;;;;;19.33;15.67;;;;;15.13;80.23;101648.94;5038514;28;45267;-74
2023/06/03 05:30:59;;;;;;;;;18.00;15.00;;;;;15.24;79.38;101658.19;5034250;28;45257;-74
2023/06/03 05:33:30;;;;;;;;;21.00;18.67;;;;;15.29;78.79;101661.47;5011857;28;45571;-75
2023/06/03 05:35:56;;;;;;;;;16.33;14.00;;;;;15.35;80.86;101651.34;5037292;28;45427;-74
2023/06/03 05:38:22;;;;;;;;;21.00;18.00;;;;;15.41;79.30;101655.50;5034464;28;45224;-74
2023/06/03 05:40:49;;;;;;;;;21.67;18.67;;;;;15.46;78.87;101648.97;5023409;28;45639;-74
2023/06/03 05:43:15;;;;;;;;;15.00;14.33;;;;;15.55;78.24;101652.97;5029794;28;45327;-75
2023/06/03 05:45:41;;;;;;;;;15.00;13.00;;;;;15.59;78.81;101642.06;5028883;28;45245;-75
2023/06/03 05:48:06;;;;;;;;;24.00;15.33;;;;;15.63;76.01;101645.41;5025063;28;45408;-74
2023/06/03 05:50:35;;;;;;;;;16.33;16.33;;;;;15.67;77.25;101644.31;5026340;28;45356;-74
2023/06/03 05:53:01;;;;;;;;;19.00;14.67;;;;;15.77;76.68;101653.50;5035881;28;45359;-74
2023/06/03 05:55:26;;;;;;;;;15.00;14.00;;;;;15.85;76.78;101655.75;5036227;28;45914;-74
2023/06/03 05:57:52;;;;;;;;;20.00;18.33;;;;;15.92;75.77;101651.81;5038806;28;45321;-74
2023/06/03 06:00:17;;;;;;;;;16.00;12.00;;;;;15.87;76.60;101637.88;5022601;28;45385;-74
2023/06/03 06:02:44;;;;;;;;;22.33;15.00;;;;;15.98;75.01;101657.66;5038962;28;45342;-74
2023/06/03 06:05:09;;;;;;;;;18.00;16.00;;;;;15.93;75.50;101630.38;5028517;28;45276;-74
2023/06/03 06:07:35;;;;;;;;;19.67;18.33;;;;;16.13;77.96;101654.13;5041441;28;45338;-74
2023/06/03 06:10:00;;;;;;;;;13.00;12.33;;;;;16.24;75.21;101658.84;5036934;28;45360;-74
2023/06/03 06:12:25;;;;;;;;;19.33;18.67;;;;;16.16;73.17;101645.09;5027179;28;45475;-74
2023/06/03 06:14:51;;;;;;;;;16.33;13.33;;;;;16.27;75.24;101665.81;5029045;28;46136;-74
2023/06/03 06:17:16;;;;;;;;;19.67;16.00;;;;;16.15;72.60;101654.91;5036300;28;45271;-75
2023/06/03 06:19:42;;;;;;;;;19.00;16.33;;;;;16.30;72.42;101670.97;5021853;28;45700;-74
2023/06/03 06:22:08;;;;;;;;;16.67;14.00;;;;;16.24;73.00;101637.50;5032202;28;45372;-74
2023/06/03 06:24:33;;;;;;;;;17.67;13.67;;;;;16.47;73.80;101662.88;5024532;28;46065;-74
2023/06/03 06:26:59;;;;;;;;;14.33;14.33;;;;;16.54;71.78;101672.25;5016288;28;45390;-74
2023/06/03 06:29:26;;;;;;;;;14.00;13.33;;;;;16.58;72.73;101668.50;5035654;28;45586;-74
2023/06/03 06:31:51;;;;;;;;;21.33;16.00;;;;;16.66;71.96;101668.88;5008803;28;45717;-74
2023/06/03 06:34:17;;;;;;;;;13.33;12.00;;;;;16.75;73.89;101665.69;5030433;28;45276;-74
2023/06/03 06:36:49;;;;;;;;;17.00;11.33;;;;;16.86;74.93;101668.56;5030580;28;45471;-74
2023/06/03 06:39:34;;;;;;;;;17.67;12.33;;;;;16.97;72.34;101663.47;5028059;28;45395;-74
2023/06/03 06:42:10;;;;;;;;;16.33;13.67;;;;;17.09;70.70;101664.53;5006640;28;45450;-75
2023/06/03 06:44:45;;;;;;;;;14.00;12.33;;;;;17.16;69.63;101661.41;5036539;28;45292;-74
2023/06/03 06:47:11;;;;;;;;;19.00;15.67;;;;;17.19;70.96;101658.53;5008495;28;45725;-75
2023/06/03 06:49:37;;;;;;;;;16.67;13.67;;;;;17.33;70.41;101673.75;5030934;28;45565;-74
2023/06/03 06:52:02;;;;;;;;;17.33;15.00;;;;;17.37;70.68;101650.34;5014174;28;45213;-74
2023/06/03 06:54:28;;;;;;;;;14.67;12.67;;;;;17.54;68.08;101661.69;5034802;28;46002;-74
2023/06/03 06:56:53;;;;;;;;;13.33;11.33;;;;;17.66;67.93;101668.16;5023953;28;45419;-74
2023/06/03 06:59:18;;;;;;;;;15.00;14.00;;;;;17.75;68.62;101674.72;5030649;28;45346;-74
2023/06/03 07:01:45;;;;;;;;;12.67;12.67;;;;;17.84;67.45;101660.75;5022561;28;45603;-74
2023/06/03 07:04:11;;;;;;;;;18.67;13.33;;;;;17.96;67.65;101665.34;5023164;28;45246;-74
2023/06/03 07:06:36;;;;;;;;;12.67;12.67;;;;;18.08;68.05;101672.56;5016603;28;45419;-74
2023/06/03 07:09:01;;;;;;;;;13.67;13.00;;;;;18.15;66.29;101666.72;5020620;28;45432;-74
2023/06/03 07:11:27;;;;;;;;;10.33;9.00;;;;;18.21;65.33;101657.44;5019469;28;45370;-75
2023/06/03 07:13:52;;;;;;;;;8.00;7.67;;;;;18.27;65.22;101673.09;5020225;28;46295;-74
2023/06/03 07:16:18;;;;;;;;;11.67;11.00;;;;;18.23;64.67;101651.00;5028346;28;45349;-74
2023/06/03 07:18:43;;;;;;;;;15.00;14.00;;;;;18.43;65.48;101667.56;5021530;28;45600;-74
2023/06/03 07:21:09;;;;;;;;;18.00;13.00;;;;;18.56;64.46;101668.53;5019197;28;45590;-74
2023/06/03 07:23:35;;;;;;;;;15.67;13.67;;;;;18.61;62.63;101669.94;5024765;28;45436;-74
2023/06/03 07:26:00;;;;;;;;;15.67;12.00;;;;;18.71;64.57;101672.88;5019531;28;45456;-75
2023/06/03 07:28:30;;;;;;;;;15.67;14.00;;;;;18.74;63.37;101664.63;5021897;28;45823;-74
2023/06/03 07:30:59;;;;;;;;;13.67;12.67;;;;;18.81;64.01;101654.34;5019304;28;45794;-74
2023/06/03 07:33:27;;;;;;;;;15.00;14.00;;;;;18.98;63.56;101673.66;5020913;28;45622;-75
2023/06/03 07:36:00;;;;;;;;;14.67;12.00;;;;;19.16;61.95;101675.09;5001069;28;45408;-74
2023/06/03 07:38:34;;;;;;;;;14.00;12.00;;;;;19.29;61.93;101666.19;5018982;28;45417;-74
2023/06/03 07:41:00;;;;;;;;;14.00;14.00;;;;;19.35;61.32;101668.44;5017948;28;45500;-74
2023/06/03 07:43:28;;;;;;;;;15.33;12.33;;;;;19.49;61.71;101677.28;5017935;28;45869;-74
2023/06/03 07:45:53;;;;;;;;;17.67;12.00;;;;;19.57;60.47;101664.16;5021804;28;45500;-74
2023/06/03 07:48:19;;;;;;;;;11.67;11.33;;;;;19.72;61.21;101664.91;5022360;28;45673;-74
2023/06/03 07:50:46;;;;;;;;;14.00;12.00;;;;;19.88;60.36;101667.34;5015852;28;45469;-75
2023/06/03 07:53:21;;;;;;;;;17.33;11.33;;;;;20.04;61.49;101687.63;5001183;28;47732;-74
2023/06/03 07:55:47;;;;;;;;;11.33;11.33;;;;;19.92;59.75;101647.38;5021920;28;45526;-75
2023/06/03 07:58:15;;;;;;;;;12.00;12.00;;;;;20.15;58.82;101674.28;5018776;28;45237;-74
2023/06/03 08:00:52;;;;;;;;;13.00;13.00;;;;;20.24;58.49;101668.22;5021308;28;45264;-75
2023/06/03 08:03:18;;;;;;;;;10.00;10.00;;;;;20.40;59.93;101667.97;5022045;28;45372;-74
2023/06/03 08:05:47;;;;;;;;;12.00;11.00;;;;;20.48;57.75;101664.72;5022949;28;45268;-75
2023/06/03 08:08:14;;;;;;;;;12.00;11.67;;;;;20.53;58.22;101660.69;5006929;28;45833;-75
2023/06/03 08:10:42;;;;;;;;;10.00;8.67;;;;;20.70;58.07;101670.19;5025665;28;45441;-76
2023/06/03 08:13:08;;;;;;;;;10.33;9.67;;;;;20.72;57.61;101660.16;5033893;28;45304;-74
2023/06/03 08:15:38;;;;;;;;;11.33;11.33;;;;;20.82;56.65;101669.25;5027418;28;45459;-74
2023/06/03 08:18:06;;;;;;;;;12.00;12.00;;;;;20.93;55.61;101665.75;5011511;28;45412;-74
2023/06/03 08:20:33;;;;;;;;;14.33;12.33;;;;;20.93;56.91;101645.09;5033906;28;45394;-74
2023/06/03 08:22:59;;;;;;;;;14.00;12.00;;;;;21.23;56.75;101666.97;5021188;28;45227;-74
2023/06/03 08:25:25;;;;;;;;;15.00;10.33;;;;;21.36;56.37;101661.47;5032390;28;45353;-75
2023/06/03 08:27:51;;;;;;;;;15.00;11.00;;;;;21.49;54.70;101664.91;5035396;28;45391;-75
2023/06/03 08:30:18;;;;;;;;;19.67;11.67;;;;;21.65;55.98;101656.47;5020651;28;45399;-75
2023/06/03 08:32:44;;;;;;;;;15.00;12.33;;;;;21.73;54.10;101654.84;5006855;28;45411;-69
2023/06/03 08:35:12;;;;;;;;;13.33;11.67;;;;;21.81;54.52;101646.19;5020952;28;45302;-70
2023/06/03 08:37:38;;;;;;;;;10.00;10.00;;;;;21.99;54.67;101644.69;5017980;28;45494;-70
2023/06/03 08:40:07;;;;;;;;;13.33;9.67;;;;;22.09;53.90;101642.97;5015944;28;45174;-70
2023/06/03 08:42:39;;;;;;;;;14.67;12.33;;;;;21.92;51.95;101618.41;5018918;28;46068;-71
2023/06/03 08:45:07;;;;;;;;;17.67;13.00;;;;;22.11;52.23;101649.09;5027195;28;45399;-70
2023/06/03 08:47:57;;;;;;;;;10.33;10.33;;;;;22.04;52.67;101637.13;5026355;28;45438;-71
2023/06/03 08:50:26;;;;;;;;;11.67;10.00;;;;;22.26;51.17;101650.53;5025117;28;45390;-70
2023/06/03 08:52:53;;;;;;;;;9.33;5.67;;;;;22.43;51.63;101643.75;5029989;28;45952;-69
2023/06/03 08:55:20;;;;;;;;;14.33;10.67;;;;;22.63;52.74;101653.72;5036392;28;45391;-69
2023/06/03 08:57:59;;;;;;;;;11.33;8.33;;;;;22.79;51.26;101653.31;5028115;28;45297;-70
2023/06/03 09:00:26;;;;;;;;;12.00;10.00;;;;;22.83;50.54;101643.97;5021112;28;45367;-70
2023/06/03 09:02:52;;;;;;;;;10.67;8.33;;;;;22.88;51.11;101647.13;5019965;28;48075;-69
2023/06/03 09:05:19;;;;;;;;;11.33;8.33;;;;;22.93;50.10;101646.75;5015801;28;45311;-70
2023/06/03 09:07:47;;;;;;;;;8.67;8.33;;;;;23.01;50.65;101634.28;5020090;28;45376;-70
2023/06/03 09:10:15;;;;;;;;;11.33;11.33;;;;;23.05;49.82;101630.34;5010772;28;45349;-70
2023/06/03 09:12:41;;;;;;;;;11.67;9.67;;;;;23.27;50.73;101634.72;5021394;28;46091;-70
2023/06/03 09:15:07;;;;;;;;;10.67;10.67;;;;;23.41;49.81;101637.13;5028807;28;45406;-70
2023/06/03 09:17:35;;;;;;;;;10.00;9.00;;;;;23.55;49.12;101634.06;5033529;28;45498;-70
2023/06/03 09:20:02;;;;;;;;;10.33;8.00;;;;;23.66;49.95;101633.94;5021635;28;45258;-70
2023/06/03 09:22:28;;;;;;;;;9.33;9.33;;;;;23.83;49.38;101636.00;5038719;28;45982;-70
2023/06/03 09:24:53;;;;;;;;;12.00;9.67;;;;;23.88;48.37;101635.59;5036968;28;45326;-70
2023/06/03 09:27:19;;;;;;;;;6.67;6.67;;;;;23.77;47.19;101611.38;5031760;28;45344;-70
2023/06/03 09:29:45;;;;;;;;;12.33;7.67;;;;;23.86;45.95;101618.66;5024888;28;45352;-70
2023/06/03 09:32:10;;;;;;;;;9.33;8.00;;;;;23.94;45.98;101626.94;5021123;28;46121;-71
2023/06/03 09:34:36;;;;;;;;;6.33;5.00;;;;;23.96;46.95;101627.66;4999742;28;45854;-70
2023/06/03 09:37:10;;;;;;;;;11.67;7.00;;;;;23.92;45.84;101615.41;5028476;28;45359;-70
2023/06/03 09:39:37;;;;;;;;;8.67;7.33;;;;;24.15;44.79;101633.13;5032639;28;45305;-70
2023/06/03 09:42:03;;;;;;;;;3.00;3.00;;;;;24.20;46.28;101632.72;5018644;28;45365;-70
2023/06/03 09:44:42;;;;;;;;;11.00;7.00;;;;;24.21;45.01;101642.53;5021608;28;45330;-70
2023/06/03 09:47:09;;;;;;;;;7.33;5.33;;;;;24.32;46.15;101637.00;5019741;28;45530;-70
2023/06/03 09:49:35;;;;;;;;;10.33;6.67;;;;;24.47;45.65;101632.91;5017938;28;45446;-70
2023/06/03 09:52:01;;;;;;;;;9.33;6.33;;;;;24.63;44.82;101638.59;5025530;28;45441;-70
2023/06/03 09:54:26;;;;;;;;;5.67;3.67;;;;;24.71;46.16;101622.47;5022135;28;45570;-70
2023/06/03 09:56:52;;;;;;;;;7.67;6.67;;;;;24.96;44.80;101631.03;5028093;28;45282;-69
2023/06/03 09:59:22;;;;;;;;;11.33;7.67;;;;;25.08;44.60;101638.00;5028417;28;45563;-69
2023/06/03 10:01:49;;;;;;;;;10.33;8.00;;;;;25.14;44.08;101650.94;5038943;28;45206;-69
2023/06/03 10:04:22;;;;;;;;;6.67;6.67;;;;;25.19;44.15;101638.69;5034496;28;45246;-70
2023/06/03 10:07:12;;;;;;;;;6.67;6.00;;;;;25.25;43.61;101642.66;5034232;28;45227;-71
2023/06/03 10:09:39;;;;;;;;;9.67;7.00;;;;;25.30;41.11;101630.38;5016999;28;45440;-70
2023/06/03 10:12:07;;;;;;;;;10.33;10.33;;;;;25.29;41.86;101633.25;5032529;28;45324;-71
2023/06/03 10:14:33;;;;;;;;;10.33;10.33;;;;;25.26;43.56;101641.69;5036293;28;45176;-70
2023/06/03 10:17:06;;;;;;;;;11.33;8.67;;;;;25.21;44.49;101619.59;5028642;28;45408;-70
2023/06/03 10:19:37;;;;;;;;;10.67;10.00;;;;;25.36;43.73;101615.38;5021834;28;45423;-71
2023/06/03 10:22:16;;;;;;;;;10.00;9.33;;;;;25.50;43.27;101619.50;5020251;28;46229;-70
2023/06/03 10:24:43;;;;;;;;;7.33;7.33;;;;;25.55;43.04;101623.50;5023531;28;46119;-70
2023/06/03 10:27:10;;;;;;;;;9.00;9.00;;;;;25.76;42.76;101629.53;5017492;28;45229;-70
2023/06/03 10:29:36;;;;;;;;;10.00;8.00;;;;;25.68;42.72;101610.47;5037486;28;45441;-70
2023/06/03 10:32:03;;;;;;;;;6.67;6.00;;;;;25.93;43.26;101622.44;5041409;28;46515;-70
2023/06/03 10:34:30;;;;;;;;;8.33;6.00;;;;;26.02;41.88;101616.09;5014721;28;45485;-71
2023/06/03 10:36:57;;;;;;;;;6.00;6.00;;;;;26.07;42.02;101621.06;5017041;28;45307;-70
2023/06/03 10:39:26;;;;;;;;;7.67;6.67;;;;;26.14;41.90;101614.91;5027061;28;45411;-70
2023/06/03 10:41:58;;;;;;;;;8.33;7.33;;;;;26.25;41.89;101617.41;5023279;28;46329;-70
2023/06/03 10:44:23;;;;;;;;;15.67;11.00;;;;;26.35;41.08;101607.34;5024233;28;45272;-70
2023/06/03 10:47:21;;;;;;;;;8.67;8.00;;;;;26.37;40.74;101610.72;5034539;28;45249;-70
2023/06/03 10:49:51;;;;;;;;;31.33;28.33;;;;;26.27;41.51;101607.28;5004122;28;45432;-70
2023/06/03 10:52:35;;;;;;;;;11.00;11.00;;;;;26.35;40.95;101607.34;5016271;28;48170;-70
2023/06/03 10:55:20;;;;;;;;;44.25;35.75;;;;;26.48;39.57;101600.66;5023713;28;45367;-70
2023/06/03 10:57:48;;;;;;;;;43.50;37.50;;;;;26.60;39.71;101610.28;5034747;28;45447;-70
2023/06/03 11:00:51;;;;;;;;;78.50;64.75;;;;;26.57;40.58;101619.56;5041424;28;45356;-70
2023/06/03 11:03:17;;;;;;;;;18.67;17.67;;;;;26.71;39.55;101601.88;5020582;28;46108;-70
2023/06/03 11:05:45;;;;;;;;;15.67;15.33;;;;;26.81;39.46;101610.81;5037548;28;45262;-70
2023/06/03 11:08:11;;;;;;;;;66.25;52.25;;;;;26.91;39.52;101611.56;5030946;28;45265;-70
2023/06/03 11:10:36;;;;;;;;;41.75;36.25;;;;;26.96;38.26;101606.53;5040826;28;45438;-70
2023/06/03 11:13:05;;;;;;;;;36.33;33.00;;;;;27.12;37.78;101598.50;5011562;28;47018;-70
2023/06/03 11:16:03;;;;;;;;;48.50;39.00;;;;;27.21;38.89;101610.25;5026423;28;45348;-70